sensor_id;sensor_type;location;lat;lon;timestamp;temperature;humidity
11838;DHT22;5978;51.020;6.764;2022-07-15T00:01:31;17.60;99.90
11838;DHT22;5978;51.020;6.764;2022-07-15T00:03:56;17.70;99.90
11838;DHT22;5978;51.020;6.764;2022-07-15T00:06:22;17.70;99.90
11838;DHT22;5978;51.020;6.764;2022-07-15T00:08:47;17.60;99.90
11838;DHT22;5978;51.020;6.764;2022-07-15T00:11:13;17.60;99.90
11838;DHT22;5978;51.020;6.764;2022-07-15T00:13:38;17.60;99.90
11838;DHT22;5978;51.020;6.764;2022-07-15T00:16:04;17.50;99.90
11838;DHT22;5978;51.020;6.764;2022-07-15T00:18:30;17.50;99.90
11838;DHT22;5978;51.020;6.764;2022-07-15T00:20:55;17.40;99.90
11838;DHT22;5978;51.020;6.764;2022-07-15T00:23:21;17.30;99.90
11838;DHT22;5978;51.020;6.764;2022-07-15T00:25:46;17.30;99.90
11838;DHT22;5978;51.020;6.764;2022-07-15T00:28:12;16.90;99.90
11838;DHT22;5978;51.020;6.764;2022-07-15T00:30:40;17.20;99.90
11838;DHT22;5978;51.020;6.764;2022-07-15T00:33:07;17.20;99.90
11838;DHT22;5978;51.020;6.764;2022-07-15T00:35:35;17.10;99.90
11838;DHT22;5978;51.020;6.764;2022-07-15T00:38:01;17.10;99.90
11838;DHT22;5978;51.020;6.764;2022-07-15T00:40:27;17.20;99.90
11838;DHT22;5978;51.020;6.764;2022-07-15T00:42:53;17.30;99.90
11838;DHT22;5978;51.020;6.764;2022-07-15T00:45:20;17.30;99.90
11838;DHT22;5978;51.020;6.764;2022-07-15T00:47:52;17.40;99.90
11838;DHT22;5978;51.020;6.764;2022-07-15T00:50:19;17.50;99.90
11838;DHT22;5978;51.020;6.764;2022-07-15T00:52:50;17.60;99.90
11838;DHT22;5978;51.020;6.764;2022-07-15T00:55:17;17.60;99.90
11838;DHT22;5978;51.020;6.764;2022-07-15T00:57:45;17.70;99.90
11838;DHT22;5978;51.020;6.764;2022-07-15T01:00:12;17.70;99.90
11838;DHT22;5978;51.020;6.764;2022-07-15T01:02:39;17.70;99.90
11838;DHT22;5978;51.020;6.764;2022-07-15T01:05:06;17.70;99.90
11838;DHT22;5978;51.020;6.764;2022-07-15T01:07:34;17.60;99.90
11838;DHT22;5978;51.020;6.764;2022-07-15T01:09:59;17.60;99.90
11838;DHT22;5978;51.020;6.764;2022-07-15T01:12:26;17.60;99.90
11838;DHT22;5978;51.020;6.764;2022-07-15T01:14:52;17.50;99.90
11838;DHT22;5978;51.020;6.764;2022-07-15T01:17:18;17.60;99.90
11838;DHT22;5978;51.020;6.764;2022-07-15T01:19:43;17.50;99.90
11838;DHT22;5978;51.020;6.764;2022-07-15T01:22:09;17.50;99.90
11838;DHT22;5978;51.020;6.764;2022-07-15T01:24:34;17.40;99.90
11838;DHT22;5978;51.020;6.764;2022-07-15T01:27:01;17.20;99.90
11838;DHT22;5978;51.020;6.764;2022-07-15T01:29:27;17.20;99.90
11838;DHT22;5978;51.020;6.764;2022-07-15T01:31:54;17.20;99.90
11838;DHT22;5978;51.020;6.764;2022-07-15T01:34:20;17.40;99.90
11838;DHT22;5978;51.020;6.764;2022-07-15T01:36:46;17.40;99.90
11838;DHT22;5978;51.020;6.764;2022-07-15T01:39:11;17.40;99.90
11838;DHT22;5978;51.020;6.764;2022-07-15T01:41:37;17.40;99.90
11838;DHT22;5978;51.020;6.764;2022-07-15T01:44:03;17.50;99.90
11838;DHT22;5978;51.020;6.764;2022-07-15T01:46:29;17.40;99.90
11838;DHT22;5978;51.020;6.764;2022-07-15T01:48:55;17.30;99.90
11838;DHT22;5978;51.020;6.764;2022-07-15T01:51:39;17.20;99.90
11838;DHT22;5978;51.020;6.764;2022-07-15T01:54:05;17.20;99.90
11838;DHT22;5978;51.020;6.764;2022-07-15T01:56:31;17.20;99.90
11838;DHT22;5978;51.020;6.764;2022-07-15T01:58:56;17.20;99.90
11838;DHT22;5978;51.020;6.764;2022-07-15T02:01:22;17.20;99.90
11838;DHT22;5978;51.020;6.764;2022-07-15T02:03:47;17.30;99.90
11838;DHT22;5978;51.020;6.764;2022-07-15T02:06:13;17.30;99.90
11838;DHT22;5978;51.020;6.764;2022-07-15T02:08:39;17.30;99.90
11838;DHT22;5978;51.020;6.764;2022-07-15T02:11:05;17.10;99.90
11838;DHT22;5978;51.020;6.764;2022-07-15T02:13:31;17.20;99.90
11838;DHT22;5978;51.020;6.764;2022-07-15T02:15:57;17.20;99.90
11838;DHT22;5978;51.020;6.764;2022-07-15T02:18:22;17.10;99.90
11838;DHT22;5978;51.020;6.764;2022-07-15T02:20:48;17.20;99.90
11838;DHT22;5978;51.020;6.764;2022-07-15T02:23:13;17.10;99.90
11838;DHT22;5978;51.020;6.764;2022-07-15T02:25:39;16.90;99.90
11838;DHT22;5978;51.020;6.764;2022-07-15T02:28:06;17.00;99.90
11838;DHT22;5978;51.020;6.764;2022-07-15T02:30:34;17.10;99.90
11838;DHT22;5978;51.020;6.764;2022-07-15T02:33:00;17.10;99.90
11838;DHT22;5978;51.020;6.764;2022-07-15T02:35:26;17.00;99.90
11838;DHT22;5978;51.020;6.764;2022-07-15T02:37:52;17.00;99.90
11838;DHT22;5978;51.020;6.764;2022-07-15T02:40:18;17.10;99.90
11838;DHT22;5978;51.020;6.764;2022-07-15T02:42:55;17.10;99.90
11838;DHT22;5978;51.020;6.764;2022-07-15T02:45:23;17.10;99.90
11838;DHT22;5978;51.020;6.764;2022-07-15T02:47:50;17.10;99.90
11838;DHT22;5978;51.020;6.764;2022-07-15T02:50:16;17.10;99.90
11838;DHT22;5978;51.020;6.764;2022-07-15T02:52:42;17.00;99.90
11838;DHT22;5978;51.020;6.764;2022-07-15T02:55:09;17.10;99.90
11838;DHT22;5978;51.020;6.764;2022-07-15T02:57:36;17.00;99.90
11838;DHT22;5978;51.020;6.764;2022-07-15T03:00:02;17.00;99.90
11838;DHT22;5978;51.020;6.764;2022-07-15T03:02:29;17.00;99.90
11838;DHT22;5978;51.020;6.764;2022-07-15T03:04:55;16.80;99.90
11838;DHT22;5978;51.020;6.764;2022-07-15T03:07:22;17.00;99.90
11838;DHT22;5978;51.020;6.764;2022-07-15T03:09:47;16.90;99.90
11838;DHT22;5978;51.020;6.764;2022-07-15T03:12:13;16.90;99.90
11838;DHT22;5978;51.020;6.764;2022-07-15T03:14:39;16.80;99.90
11838;DHT22;5978;51.020;6.764;2022-07-15T03:17:06;16.70;99.90
11838;DHT22;5978;51.020;6.764;2022-07-15T03:19:31;16.70;99.90
11838;DHT22;5978;51.020;6.764;2022-07-15T03:21:57;16.70;99.90
11838;DHT22;5978;51.020;6.764;2022-07-15T03:24:22;16.60;99.90
11838;DHT22;5978;51.020;6.764;2022-07-15T03:26:48;16.60;99.90
11838;DHT22;5978;51.020;6.764;2022-07-15T03:29:14;16.60;99.90
11838;DHT22;5978;51.020;6.764;2022-07-15T03:31:41;16.60;99.90
11838;DHT22;5978;51.020;6.764;2022-07-15T03:34:07;16.60;99.90
11838;DHT22;5978;51.020;6.764;2022-07-15T03:36:33;16.70;99.90
11838;DHT22;5978;51.020;6.764;2022-07-15T03:38:58;16.70;99.90
11838;DHT22;5978;51.020;6.764;2022-07-15T03:41:24;16.70;99.90
11838;DHT22;5978;51.020;6.764;2022-07-15T03:43:49;16.70;99.90
11838;DHT22;5978;51.020;6.764;2022-07-15T03:46:15;16.60;99.90
11838;DHT22;5978;51.020;6.764;2022-07-15T03:48:41;16.50;99.90
11838;DHT22;5978;51.020;6.764;2022-07-15T03:51:06;16.50;99.90
11838;DHT22;5978;51.020;6.764;2022-07-15T03:53:32;16.50;99.90
11838;DHT22;5978;51.020;6.764;2022-07-15T03:55:58;16.30;99.90
11838;DHT22;5978;51.020;6.764;2022-07-15T03:58:23;16.30;99.90
11838;DHT22;5978;51.020;6.764;2022-07-15T04:00:49;16.30;99.90
11838;DHT22;5978;51.020;6.764;2022-07-15T04:03:15;16.20;99.90
11838;DHT22;5978;51.020;6.764;2022-07-15T04:05:42;16.30;99.90
11838;DHT22;5978;51.020;6.764;2022-07-15T04:08:07;16.30;99.90
11838;DHT22;5978;51.020;6.764;2022-07-15T04:10:33;16.40;99.90
11838;DHT22;5978;51.020;6.764;2022-07-15T04:12:59;16.40;99.90
11838;DHT22;5978;51.020;6.764;2022-07-15T04:15:24;16.40;99.90
11838;DHT22;5978;51.020;6.764;2022-07-15T04:17:50;16.30;99.90
11838;DHT22;5978;51.020;6.764;2022-07-15T04:20:15;16.40;99.90
11838;DHT22;5978;51.020;6.764;2022-07-15T04:22:42;16.40;99.90
11838;DHT22;5978;51.020;6.764;2022-07-15T04:25:09;16.40;99.90
11838;DHT22;5978;51.020;6.764;2022-07-15T04:27:37;16.40;99.90
11838;DHT22;5978;51.020;6.764;2022-07-15T04:30:04;16.40;99.90
11838;DHT22;5978;51.020;6.764;2022-07-15T04:32:30;16.50;99.90
11838;DHT22;5978;51.020;6.764;2022-07-15T04:34:56;16.60;99.90
11838;DHT22;5978;51.020;6.764;2022-07-15T04:37:22;16.60;99.90
11838;DHT22;5978;51.020;6.764;2022-07-15T04:39:47;16.60;99.90
11838;DHT22;5978;51.020;6.764;2022-07-15T04:42:13;16.80;99.90
11838;DHT22;5978;51.020;6.764;2022-07-15T04:44:39;16.70;99.90
11838;DHT22;5978;51.020;6.764;2022-07-15T04:47:05;16.70;99.90
11838;DHT22;5978;51.020;6.764;2022-07-15T04:49:31;16.80;99.90
11838;DHT22;5978;51.020;6.764;2022-07-15T04:52:15;16.70;99.90
11838;DHT22;5978;51.020;6.764;2022-07-15T04:54:41;16.80;99.90
11838;DHT22;5978;51.020;6.764;2022-07-15T04:57:07;16.90;99.90
11838;DHT22;5978;51.020;6.764;2022-07-15T04:59:32;16.80;99.90
11838;DHT22;5978;51.020;6.764;2022-07-15T05:01:58;16.80;99.90
11838;DHT22;5978;51.020;6.764;2022-07-15T05:04:24;16.90;99.90
11838;DHT22;5978;51.020;6.764;2022-07-15T05:06:50;17.00;99.90
11838;DHT22;5978;51.020;6.764;2022-07-15T05:09:15;16.90;99.90
11838;DHT22;5978;51.020;6.764;2022-07-15T05:11:41;17.00;99.90
11838;DHT22;5978;51.020;6.764;2022-07-15T05:14:07;17.00;99.90
11838;DHT22;5978;51.020;6.764;2022-07-15T05:16:32;17.10;99.90
11838;DHT22;5978;51.020;6.764;2022-07-15T05:18:58;17.10;99.90
11838;DHT22;5978;51.020;6.764;2022-07-15T05:21:23;17.10;99.90
11838;DHT22;5978;51.020;6.764;2022-07-15T05:23:49;17.10;99.90
11838;DHT22;5978;51.020;6.764;2022-07-15T05:26:14;17.10;99.90
11838;DHT22;5978;51.020;6.764;2022-07-15T05:28:40;17.30;99.90
11838;DHT22;5978;51.020;6.764;2022-07-15T05:31:06;17.20;99.90
11838;DHT22;5978;51.020;6.764;2022-07-15T05:33:32;17.40;99.90
11838;DHT22;5978;51.020;6.764;2022-07-15T05:35:58;17.50;99.90
11838;DHT22;5978;51.020;6.764;2022-07-15T05:38:24;17.40;99.90
11838;DHT22;5978;51.020;6.764;2022-07-15T05:40:50;17.40;99.90
11838;DHT22;5978;51.020;6.764;2022-07-15T05:43:16;17.40;99.90
11838;DHT22;5978;51.020;6.764;2022-07-15T05:45:42;17.50;99.90
11838;DHT22;5978;51.020;6.764;2022-07-15T05:48:08;17.50;99.90
11838;DHT22;5978;51.020;6.764;2022-07-15T05:50:34;17.80;99.90
11838;DHT22;5978;51.020;6.764;2022-07-15T05:52:59;17.80;99.90
11838;DHT22;5978;51.020;6.764;2022-07-15T05:55:25;17.80;99.90
11838;DHT22;5978;51.020;6.764;2022-07-15T05:57:51;18.00;99.90
11838;DHT22;5978;51.020;6.764;2022-07-15T06:00:17;18.00;99.90
11838;DHT22;5978;51.020;6.764;2022-07-15T06:02:42;17.80;99.90
11838;DHT22;5978;51.020;6.764;2022-07-15T06:05:09;17.70;99.90
11838;DHT22;5978;51.020;6.764;2022-07-15T06:07:35;17.70;99.90
11838;DHT22;5978;51.020;6.764;2022-07-15T06:10:02;17.60;99.90
11838;DHT22;5978;51.020;6.764;2022-07-15T06:12:28;17.50;99.90
11838;DHT22;5978;51.020;6.764;2022-07-15T06:14:53;17.50;99.90
11838;DHT22;5978;51.020;6.764;2022-07-15T06:17:19;17.50;99.90
11838;DHT22;5978;51.020;6.764;2022-07-15T06:19:44;17.60;99.90
11838;DHT22;5978;51.020;6.764;2022-07-15T06:22:10;17.70;99.90
11838;DHT22;5978;51.020;6.764;2022-07-15T06:24:36;17.80;99.90
11838;DHT22;5978;51.020;6.764;2022-07-15T06:27:01;18.00;99.90
11838;DHT22;5978;51.020;6.764;2022-07-15T06:29:27;18.20;99.90
11838;DHT22;5978;51.020;6.764;2022-07-15T06:31:52;18.20;99.90
11838;DHT22;5978;51.020;6.764;2022-07-15T06:34:18;18.00;99.90
11838;DHT22;5978;51.020;6.764;2022-07-15T06:36:43;18.10;99.90
11838;DHT22;5978;51.020;6.764;2022-07-15T06:39:09;18.20;99.90
11838;DHT22;5978;51.020;6.764;2022-07-15T06:41:36;18.40;99.90
11838;DHT22;5978;51.020;6.764;2022-07-15T06:44:02;18.60;99.90
11838;DHT22;5978;51.020;6.764;2022-07-15T06:46:27;18.80;99.90
11838;DHT22;5978;51.020;6.764;2022-07-15T06:48:53;18.90;99.90
11838;DHT22;5978;51.020;6.764;2022-07-15T06:51:19;19.00;99.90
11838;DHT22;5978;51.020;6.764;2022-07-15T06:53:44;19.10;99.90
11838;DHT22;5978;51.020;6.764;2022-07-15T06:56:10;19.30;99.90
11838;DHT22;5978;51.020;6.764;2022-07-15T06:58:36;19.30;99.90
11838;DHT22;5978;51.020;6.764;2022-07-15T07:01:01;19.30;99.90
11838;DHT22;5978;51.020;6.764;2022-07-15T07:03:27;19.40;99.90
11838;DHT22;5978;51.020;6.764;2022-07-15T07:05:53;19.50;99.90
11838;DHT22;5978;51.020;6.764;2022-07-15T07:08:18;19.70;99.90
11838;DHT22;5978;51.020;6.764;2022-07-15T07:10:44;19.80;99.90
11838;DHT22;5978;51.020;6.764;2022-07-15T07:13:09;19.80;99.90
11838;DHT22;5978;51.020;6.764;2022-07-15T07:15:36;19.80;99.90
11838;DHT22;5978;51.020;6.764;2022-07-15T07:18:01;19.60;99.90
11838;DHT22;5978;51.020;6.764;2022-07-15T07:20:28;19.70;99.90
11838;DHT22;5978;51.020;6.764;2022-07-15T07:22:54;19.80;99.90
11838;DHT22;5978;51.020;6.764;2022-07-15T07:25:19;19.70;99.90
11838;DHT22;5978;51.020;6.764;2022-07-15T07:27:45;19.60;99.90
11838;DHT22;5978;51.020;6.764;2022-07-15T07:30:11;19.80;99.90
11838;DHT22;5978;51.020;6.764;2022-07-15T07:32:36;19.80;99.90
11838;DHT22;5978;51.020;6.764;2022-07-15T07:35:02;19.60;99.90
11838;DHT22;5978;51.020;6.764;2022-07-15T07:37:28;19.70;99.90
11838;DHT22;5978;51.020;6.764;2022-07-15T07:39:54;20.00;99.90
11838;DHT22;5978;51.020;6.764;2022-07-15T07:42:19;20.30;99.90
11838;DHT22;5978;51.020;6.764;2022-07-15T07:44:45;20.40;99.90
11838;DHT22;5978;51.020;6.764;2022-07-15T07:47:11;20.70;99.90
11838;DHT22;5978;51.020;6.764;2022-07-15T07:49:37;20.80;99.90
11838;DHT22;5978;51.020;6.764;2022-07-15T07:52:03;20.70;99.90
11838;DHT22;5978;51.020;6.764;2022-07-15T07:54:29;20.90;99.90
11838;DHT22;5978;51.020;6.764;2022-07-15T07:56:55;21.00;99.90
11838;DHT22;5978;51.020;6.764;2022-07-15T07:59:21;21.40;99.90
11838;DHT22;5978;51.020;6.764;2022-07-15T08:01:47;21.80;99.90
11838;DHT22;5978;51.020;6.764;2022-07-15T08:04:12;22.00;99.90
11838;DHT22;5978;51.020;6.764;2022-07-15T08:06:40;22.20;99.90
11838;DHT22;5978;51.020;6.764;2022-07-15T08:09:06;22.20;99.90
11838;DHT22;5978;51.020;6.764;2022-07-15T08:11:31;22.00;99.90
11838;DHT22;5978;51.020;6.764;2022-07-15T08:13:57;21.80;99.90
11838;DHT22;5978;51.020;6.764;2022-07-15T08:16:22;22.00;99.90
11838;DHT22;5978;51.020;6.764;2022-07-15T08:18:48;21.90;99.90
11838;DHT22;5978;51.020;6.764;2022-07-15T08:21:14;21.80;99.90
11838;DHT22;5978;51.020;6.764;2022-07-15T08:23:40;21.60;99.90
11838;DHT22;5978;51.020;6.764;2022-07-15T08:26:06;21.50;99.90
11838;DHT22;5978;51.020;6.764;2022-07-15T08:28:33;21.50;99.90
11838;DHT22;5978;51.020;6.764;2022-07-15T08:30:59;21.60;99.90
11838;DHT22;5978;51.020;6.764;2022-07-15T08:33:25;21.70;99.90
11838;DHT22;5978;51.020;6.764;2022-07-15T08:35:50;21.90;99.90
11838;DHT22;5978;51.020;6.764;2022-07-15T08:38:16;22.20;99.90
11838;DHT22;5978;51.020;6.764;2022-07-15T08:40:42;22.10;99.90
11838;DHT22;5978;51.020;6.764;2022-07-15T08:43:10;22.20;99.90
11838;DHT22;5978;51.020;6.764;2022-07-15T08:45:37;22.10;99.90
11838;DHT22;5978;51.020;6.764;2022-07-15T08:48:05;22.10;99.90
11838;DHT22;5978;51.020;6.764;2022-07-15T08:50:31;22.50;99.90
11838;DHT22;5978;51.020;6.764;2022-07-15T08:52:58;22.70;99.30
11838;DHT22;5978;51.020;6.764;2022-07-15T08:55:23;22.70;98.20
11838;DHT22;5978;51.020;6.764;2022-07-15T08:57:51;22.70;98.70
11838;DHT22;5978;51.020;6.764;2022-07-15T09:00:18;22.90;98.40
11838;DHT22;5978;51.020;6.764;2022-07-15T09:02:45;23.20;97.10
11838;DHT22;5978;51.020;6.764;2022-07-15T09:07:58;23.10;96.20
11838;DHT22;5978;51.020;6.764;2022-07-15T09:13:05;23.10;93.90
11838;DHT22;5978;51.020;6.764;2022-07-15T09:15:38;22.90;94.60
11838;DHT22;5978;51.020;6.764;2022-07-15T09:18:17;22.90;95.30
11838;DHT22;5978;51.020;6.764;2022-07-15T09:20:44;23.00;94.80
11838;DHT22;5978;51.020;6.764;2022-07-15T09:23:11;23.10;94.00
11838;DHT22;5978;51.020;6.764;2022-07-15T09:25:41;23.50;94.40
11838;DHT22;5978;51.020;6.764;2022-07-15T09:28:08;23.80;93.10
11838;DHT22;5978;51.020;6.764;2022-07-15T09:30:39;23.70;93.90
11838;DHT22;5978;51.020;6.764;2022-07-15T09:33:29;23.60;93.40
11838;DHT22;5978;51.020;6.764;2022-07-15T09:41:30;23.80;91.60
11838;DHT22;5978;51.020;6.764;2022-07-15T09:43:57;23.80;92.40
11838;DHT22;5978;51.020;6.764;2022-07-15T09:46:26;23.70;92.10
11838;DHT22;5978;51.020;6.764;2022-07-15T09:48:53;23.50;90.00
11838;DHT22;5978;51.020;6.764;2022-07-15T09:51:20;23.40;90.10
11838;DHT22;5978;51.020;6.764;2022-07-15T09:53:46;23.50;87.80
11838;DHT22;5978;51.020;6.764;2022-07-15T09:56:17;23.80;88.60
11838;DHT22;5978;51.020;6.764;2022-07-15T09:58:48;24.10;86.00
11838;DHT22;5978;51.020;6.764;2022-07-15T10:01:14;24.30;85.00
11838;DHT22;5978;51.020;6.764;2022-07-15T10:03:40;24.30;86.60
11838;DHT22;5978;51.020;6.764;2022-07-15T10:06:06;24.30;85.50
11838;DHT22;5978;51.020;6.764;2022-07-15T10:08:33;24.20;86.80
11838;DHT22;5978;51.020;6.764;2022-07-15T10:10:59;23.70;83.80
11838;DHT22;5978;51.020;6.764;2022-07-15T10:21:18;24.00;82.10
11838;DHT22;5978;51.020;6.764;2022-07-15T10:24:14;24.00;75.60
11838;DHT22;5978;51.020;6.764;2022-07-15T10:26:50;23.90;76.70
11838;DHT22;5978;51.020;6.764;2022-07-15T10:29:22;23.80;78.20
11838;DHT22;5978;51.020;6.764;2022-07-15T10:31:56;24.00;77.30
11838;DHT22;5978;51.020;6.764;2022-07-15T10:34:23;24.30;77.30
11838;DHT22;5978;51.020;6.764;2022-07-15T10:39:19;24.90;72.60
11838;DHT22;5978;51.020;6.764;2022-07-15T10:41:58;24.60;72.20
11838;DHT22;5978;51.020;6.764;2022-07-15T10:44:49;24.60;73.80
11838;DHT22;5978;51.020;6.764;2022-07-15T10:47:16;25.00;75.40
11838;DHT22;5978;51.020;6.764;2022-07-15T10:49:49;25.10;74.20
11838;DHT22;5978;51.020;6.764;2022-07-15T10:54:47;25.80;75.20
11838;DHT22;5978;51.020;6.764;2022-07-15T10:57:14;26.60;75.40
11838;DHT22;5978;51.020;6.764;2022-07-15T10:59:52;26.80;71.70
11838;DHT22;5978;51.020;6.764;2022-07-15T11:02:20;26.60;70.90
11838;DHT22;5978;51.020;6.764;2022-07-15T11:04:47;26.30;71.90
11838;DHT22;5978;51.020;6.764;2022-07-15T11:17:39;26.10;72.10
11838;DHT22;5978;51.020;6.764;2022-07-15T11:20:08;26.60;69.50
11838;DHT22;5978;51.020;6.764;2022-07-15T11:22:36;26.70;69.10
11838;DHT22;5978;51.020;6.764;2022-07-15T11:25:02;26.70;67.60
11838;DHT22;5978;51.020;6.764;2022-07-15T11:27:31;26.30;67.10
11838;DHT22;5978;51.020;6.764;2022-07-15T11:30:00;26.20;67.70
11838;DHT22;5978;51.020;6.764;2022-07-15T11:32:31;26.20;69.40
11838;DHT22;5978;51.020;6.764;2022-07-15T11:34:59;26.00;69.70
11838;DHT22;5978;51.020;6.764;2022-07-15T11:37:30;26.00;69.90
11838;DHT22;5978;51.020;6.764;2022-07-15T11:42:37;28.10;68.30
11838;DHT22;5978;51.020;6.764;2022-07-15T11:45:36;27.60;63.60
11838;DHT22;5978;51.020;6.764;2022-07-15T11:48:04;27.60;64.10
11838;DHT22;5978;51.020;6.764;2022-07-15T11:50:32;27.90;64.70
11838;DHT22;5978;51.020;6.764;2022-07-15T11:52:59;27.60;64.50
11838;DHT22;5978;51.020;6.764;2022-07-15T11:55:24;27.30;63.50
11838;DHT22;5978;51.020;6.764;2022-07-15T11:57:50;27.50;65.10
11838;DHT22;5978;51.020;6.764;2022-07-15T12:00:18;27.50;66.40
11838;DHT22;5978;51.020;6.764;2022-07-15T12:03:08;28.20;65.60
11838;DHT22;5978;51.020;6.764;2022-07-15T12:05:34;29.80;61.10
11838;DHT22;5978;51.020;6.764;2022-07-15T12:07:59;30.80;58.10
11838;DHT22;5978;51.020;6.764;2022-07-15T12:10:35;32.20;56.80
11838;DHT22;5978;51.020;6.764;2022-07-15T12:13:01;33.10;55.20
11838;DHT22;5978;51.020;6.764;2022-07-15T12:15:28;33.40;53.10
11838;DHT22;5978;51.020;6.764;2022-07-15T12:17:54;32.90;51.80
11838;DHT22;5978;51.020;6.764;2022-07-15T12:20:21;32.40;51.70
11838;DHT22;5978;51.020;6.764;2022-07-15T12:25:28;32.80;51.90
11838;DHT22;5978;51.020;6.764;2022-07-15T12:27:54;31.60;50.50
11838;DHT22;5978;51.020;6.764;2022-07-15T12:30:36;31.10;51.90
11838;DHT22;5978;51.020;6.764;2022-07-15T12:33:18;30.40;52.80
11838;DHT22;5978;51.020;6.764;2022-07-15T12:35:45;29.10;53.90
11838;DHT22;5978;51.020;6.764;2022-07-15T12:38:26;29.00;54.40
11838;DHT22;5978;51.020;6.764;2022-07-15T12:40:53;28.50;54.80
11838;DHT22;5978;51.020;6.764;2022-07-15T12:43:19;28.10;54.80
11838;DHT22;5978;51.020;6.764;2022-07-15T12:45:44;27.60;55.10
11838;DHT22;5978;51.020;6.764;2022-07-15T12:48:11;27.40;55.80
11838;DHT22;5978;51.020;6.764;2022-07-15T12:53:15;28.00;55.70
11838;DHT22;5978;51.020;6.764;2022-07-15T12:55:44;27.80;56.90
11838;DHT22;5978;51.020;6.764;2022-07-15T12:58:12;26.90;57.80
11838;DHT22;5978;51.020;6.764;2022-07-15T13:00:40;26.50;59.50
11838;DHT22;5978;51.020;6.764;2022-07-15T13:05:41;26.30;59.50
11838;DHT22;5978;51.020;6.764;2022-07-15T13:08:08;26.30;59.50
11838;DHT22;5978;51.020;6.764;2022-07-15T13:10:35;26.40;58.80
11838;DHT22;5978;51.020;6.764;2022-07-15T13:13:03;26.20;59.10
11838;DHT22;5978;51.020;6.764;2022-07-15T13:15:30;27.30;60.50
11838;DHT22;5978;51.020;6.764;2022-07-15T13:17:56;29.80;57.70
11838;DHT22;5978;51.020;6.764;2022-07-15T13:20:22;31.60;55.30
11838;DHT22;5978;51.020;6.764;2022-07-15T13:22:48;32.80;52.20
11838;DHT22;5978;51.020;6.764;2022-07-15T13:25:14;34.80;49.10
11838;DHT22;5978;51.020;6.764;2022-07-15T13:27:40;36.20;48.60
11838;DHT22;5978;51.020;6.764;2022-07-15T13:30:07;36.80;45.80
11838;DHT22;5978;51.020;6.764;2022-07-15T13:32:33;35.90;46.40
11838;DHT22;5978;51.020;6.764;2022-07-15T13:34:58;36.20;45.90
11838;DHT22;5978;51.020;6.764;2022-07-15T13:37:24;37.00;46.20
11838;DHT22;5978;51.020;6.764;2022-07-15T13:39:50;37.30;44.20
11838;DHT22;5978;51.020;6.764;2022-07-15T13:42:16;37.70;43.40
11838;DHT22;5978;51.020;6.764;2022-07-15T13:44:42;37.10;43.80
11838;DHT22;5978;51.020;6.764;2022-07-15T13:47:08;37.50;43.40
11838;DHT22;5978;51.020;6.764;2022-07-15T13:49:35;37.70;41.90
11838;DHT22;5978;51.020;6.764;2022-07-15T13:52:43;38.50;43.50
11838;DHT22;5978;51.020;6.764;2022-07-15T13:55:09;39.00;40.10
11838;DHT22;5978;51.020;6.764;2022-07-15T13:57:36;39.60;40.10
11838;DHT22;5978;51.020;6.764;2022-07-15T14:00:04;36.50;40.80
11838;DHT22;5978;51.020;6.764;2022-07-15T14:02:29;34.90;42.50
11838;DHT22;5978;51.020;6.764;2022-07-15T14:04:55;33.50;44.20
11838;DHT22;5978;51.020;6.764;2022-07-15T14:07:21;32.00;45.10
11838;DHT22;5978;51.020;6.764;2022-07-15T14:09:47;30.70;45.50
11838;DHT22;5978;51.020;6.764;2022-07-15T14:12:12;29.80;47.30
11838;DHT22;5978;51.020;6.764;2022-07-15T14:14:38;29.00;48.30
11838;DHT22;5978;51.020;6.764;2022-07-15T14:17:03;28.50;49.60
11838;DHT22;5978;51.020;6.764;2022-07-15T14:19:29;28.10;50.80
11838;DHT22;5978;51.020;6.764;2022-07-15T14:21:55;27.70;51.40
11838;DHT22;5978;51.020;6.764;2022-07-15T14:24:21;28.10;52.50
11838;DHT22;5978;51.020;6.764;2022-07-15T14:26:47;30.20;52.40
11838;DHT22;5978;51.020;6.764;2022-07-15T14:29:12;32.50;49.50
11838;DHT22;5978;51.020;6.764;2022-07-15T14:31:39;32.10;48.30
11838;DHT22;5978;51.020;6.764;2022-07-15T14:34:04;30.30;46.90
11838;DHT22;5978;51.020;6.764;2022-07-15T14:36:30;29.30;49.70
11838;DHT22;5978;51.020;6.764;2022-07-15T14:38:56;28.40;50.60
11838;DHT22;5978;51.020;6.764;2022-07-15T14:41:22;28.30;52.20
11838;DHT22;5978;51.020;6.764;2022-07-15T14:43:47;30.00;51.10
11838;DHT22;5978;51.020;6.764;2022-07-15T14:46:13;31.00;50.00
11838;DHT22;5978;51.020;6.764;2022-07-15T14:48:39;32.80;48.60
11838;DHT22;5978;51.020;6.764;2022-07-15T14:51:04;34.40;46.30
11838;DHT22;5978;51.020;6.764;2022-07-15T14:53:30;34.20;44.40
11838;DHT22;5978;51.020;6.764;2022-07-15T14:55:55;34.50;45.00
11838;DHT22;5978;51.020;6.764;2022-07-15T14:58:21;36.00;43.80
11838;DHT22;5978;51.020;6.764;2022-07-15T15:00:47;35.40;43.10
11838;DHT22;5978;51.020;6.764;2022-07-15T15:03:14;34.30;44.60
11838;DHT22;5978;51.020;6.764;2022-07-15T15:05:41;35.40;44.40
11838;DHT22;5978;51.020;6.764;2022-07-15T15:08:07;34.70;43.90
11838;DHT22;5978;51.020;6.764;2022-07-15T15:10:32;33.80;43.30
11838;DHT22;5978;51.020;6.764;2022-07-15T15:12:58;33.20;44.90
11838;DHT22;5978;51.020;6.764;2022-07-15T15:15:24;33.40;45.90
11838;DHT22;5978;51.020;6.764;2022-07-15T15:17:50;33.60;44.90
11838;DHT22;5978;51.020;6.764;2022-07-15T15:20:17;34.10;44.60
11838;DHT22;5978;51.020;6.764;2022-07-15T15:22:43;33.10;45.20
11838;DHT22;5978;51.020;6.764;2022-07-15T15:25:08;31.60;46.20
11838;DHT22;5978;51.020;6.764;2022-07-15T15:27:34;31.00;47.40
11838;DHT22;5978;51.020;6.764;2022-07-15T15:30:02;30.60;49.10
11838;DHT22;5978;51.020;6.764;2022-07-15T15:32:28;30.30;49.20
11838;DHT22;5978;51.020;6.764;2022-07-15T15:34:55;30.30;49.40
11838;DHT22;5978;51.020;6.764;2022-07-15T15:37:20;30.70;49.50
11838;DHT22;5978;51.020;6.764;2022-07-15T15:39:46;30.90;48.50
11838;DHT22;5978;51.020;6.764;2022-07-15T15:42:12;31.50;47.80
11838;DHT22;5978;51.020;6.764;2022-07-15T15:44:38;31.10;47.40
11838;DHT22;5978;51.020;6.764;2022-07-15T15:47:04;30.40;47.60
11838;DHT22;5978;51.020;6.764;2022-07-15T15:49:31;30.00;48.40
11838;DHT22;5978;51.020;6.764;2022-07-15T15:51:56;29.80;48.90
11838;DHT22;5978;51.020;6.764;2022-07-15T15:54:22;29.10;49.60
11838;DHT22;5978;51.020;6.764;2022-07-15T15:56:49;28.90;50.80
11838;DHT22;5978;51.020;6.764;2022-07-15T15:59:15;28.50;50.50
11838;DHT22;5978;51.020;6.764;2022-07-15T16:01:41;28.30;50.80
11838;DHT22;5978;51.020;6.764;2022-07-15T16:04:07;28.20;51.00
11838;DHT22;5978;51.020;6.764;2022-07-15T16:06:32;28.00;51.40
11838;DHT22;5978;51.020;6.764;2022-07-15T16:08:58;27.80;51.00
11838;DHT22;5978;51.020;6.764;2022-07-15T16:11:23;27.60;51.20
11838;DHT22;5978;51.020;6.764;2022-07-15T16:13:49;26.90;50.90
11838;DHT22;5978;51.020;6.764;2022-07-15T16:16:16;26.60;51.60
11838;DHT22;5978;51.020;6.764;2022-07-15T16:18:41;26.50;52.50
11838;DHT22;5978;51.020;6.764;2022-07-15T16:21:07;26.50;53.30
11838;DHT22;5978;51.020;6.764;2022-07-15T16:23:34;26.30;52.80
11838;DHT22;5978;51.020;6.764;2022-07-15T16:26:00;26.20;53.30
11838;DHT22;5978;51.020;6.764;2022-07-15T16:28:26;26.00;53.70